LKTB METAR and TAF | Updated Today

LKTB METAR

Brno-Tuřany Airport

Observation time: 25 min. ago

LKTB 052030Z 05003KT 010V080 CAVOK M04/M09 Q1037 NOSIG

Need help? Read our tutorial on how to read METARs or read the parsed version below.

Brno-Tuřany Airport (LKTB) METAR

  • Weather conditions on Sun, 05 Feb 2023 20:30:00 +0000 (25 min. ago):
  • Present conditions: Dry
  • Clouds: Clear skies
  • Visibility: Greater than 10 km
  • Wind: 50 degrees at 3 knots
  • Temperature: -4 celsius
  • Dew point: -9 celsius
  • Pressure: 1037 millibars
  • Remarks: None


Useful to know...

LKTB TAF

Brno-Tuřany Airport

TAF LKTB 051700Z 0518/0618 03008KT CAVOK
Observation time: 3:55 hr. ago
Need help? Read our tutorial on how to read TAFs or read the parsed version below.

Parsed version of TAF for Brno-Tuřany Airport (LKTB)

  • From 05 February at 18:00 UTC, to day 06 of the month at 18:00 UTC
  • Visibility: Greater than 10 km
  • Wind: 30 degrees at 8